Time;durP1;ratioP1;P1;durP2;ratioP2;P2;SDS_P1;SDS_P2;PMS_P1;PMS_P2;Temp;Humidity;BMP_temperature;BMP_pressure;BME280_temperature;BME280_humidity;BME280_pressure;Samples;Min_cycle;Max_cycle;Signal;HPM_P1;HPM_P2
2022/03/21 00:02:15;;;;;;;29.20;15.95;;;;;;;;;;6181006;23;20013;-51
2022/03/21 00:04:40;;;;;;;30.00;17.17;;;;;;;;;;6182291;23;20017;-53
2022/03/21 00:07:05;;;;;;;35.95;16.98;;;;;;;;;;6182420;23;20005;-52
2022/03/21 00:09:30;;;;;;;30.05;17.05;;;;;;;;;;6183677;23;20045;-52
2022/03/21 00:11:56;;;;;;;28.48;16.30;;;;;;;;;;6181943;23;20535;-53
2022/03/21 00:14:21;;;;;;;29.88;16.35;;;;;;;;;;6184785;23;20013;-53
2022/03/21 00:16:46;;;;;;;30.38;16.27;;;;;;;;;;6182971;23;20009;-52
2022/03/21 00:19:12;;;;;;;31.17;16.25;;;;;;;;;;6185184;23;20068;-52
2022/03/21 00:21:37;;;;;;;32.60;18.08;;;;;;;;;;6182053;23;20016;-54
2022/03/21 00:24:03;;;;;;;25.95;16.05;;;;;;;;;;6183624;23;20013;-54
2022/03/21 00:26:28;;;;;;;32.10;17.13;;;;;;;;;;6182558;23;20019;-52
2022/03/21 00:28:54;;;;;;;32.20;17.30;;;;;;;;;;6184463;23;20068;-51
2022/03/21 00:31:19;;;;;;;35.65;16.65;;;;;;;;;;6205698;23;20017;-53
2022/03/21 00:33:44;;;;;;;37.05;18.50;;;;;;;;;;6184791;23;20043;-50
2022/03/21 00:36:10;;;;;;;41.47;18.00;;;;;;;;;;6182806;23;20044;-53
2022/03/21 00:38:37;;;;;;;37.67;18.90;;;;;;;;;;6158078;23;20032;-51
2022/03/21 00:41:04;;;;;;;32.72;19.42;;;;;;;;;;6183178;23;20059;-52
2022/03/21 00:43:30;;;;;;;37.85;20.33;;;;;;;;;;6184608;23;20052;-50
2022/03/21 00:45:57;;;;;;;37.10;16.75;;;;;;;;;;6182307;23;20009;-52
2022/03/21 00:48:23;;;;;;;36.92;19.23;;;;;;;;;;6184296;23;20025;-54
2022/03/21 00:50:48;;;;;;;35.80;19.60;;;;;;;;;;6182655;23;20312;-52
2022/03/21 00:53:14;;;;;;;35.47;18.52;;;;;;;;;;6184016;23;20009;-51
2022/03/21 00:55:39;;;;;;;30.67;17.55;;;;;;;;;;6181897;23;20052;-54
2022/03/21 00:58:05;;;;;;;33.42;17.67;;;;;;;;;;6184967;23;20017;-52
2022/03/21 01:00:30;;;;;;;35.33;20.13;;;;;;;;;;6181402;23;20092;-51
2022/03/21 01:02:56;;;;;;;36.95;19.88;;;;;;;;;;6184127;23;20120;-53
2022/03/21 01:05:25;;;;;;;35.35;18.70;;;;;;;;;;6181178;23;20017;-51
2022/03/21 01:07:51;;;;;;;34.97;18.77;;;;;;;;;;6183224;23;20028;-54
2022/03/21 01:10:17;;;;;;;37.15;20.40;;;;;;;;;;6180636;23;20014;-52
2022/03/21 01:12:43;;;;;;;31.92;18.75;;;;;;;;;;6184235;23;20009;-54
2022/03/21 01:15:08;;;;;;;34.63;18.80;;;;;;;;;;6183498;23;20187;-54
2022/03/21 01:17:34;;;;;;;35.58;19.15;;;;;;;;;;6157600;23;20020;-49
2022/03/21 01:19:59;;;;;;;32.67;18.25;;;;;;;;;;6182423;23;20321;-49
2022/03/21 01:22:24;;;;;;;37.40;20.38;;;;;;;;;;6184533;23;20013;-53
2022/03/21 01:24:50;;;;;;;36.70;19.83;;;;;;;;;;6180565;23;20005;-51
2022/03/21 01:27:15;;;;;;;34.17;20.25;;;;;;;;;;6184348;23;20531;-54
2022/03/21 01:29:41;;;;;;;35.60;19.48;;;;;;;;;;6182423;23;20017;-49
2022/03/21 01:32:06;;;;;;;32.17;19.23;;;;;;;;;;6185384;23;20036;-51
2022/03/21 01:34:31;;;;;;;34.55;18.27;;;;;;;;;;6155073;23;20025;-52
2022/03/21 01:36:57;;;;;;;32.22;17.25;;;;;;;;;;6185800;23;20009;-48
2022/03/21 01:39:22;;;;;;;29.85;17.70;;;;;;;;;;6184618;23;20052;-52
2022/03/21 01:41:48;;;;;;;36.55;19.38;;;;;;;;;;6186622;23;20013;-54
2022/03/21 01:44:13;;;;;;;37.53;19.60;;;;;;;;;;6183840;23;20017;-55
2022/03/21 01:46:39;;;;;;;33.83;17.83;;;;;;;;;;6185670;23;20021;-51
2022/03/21 01:49:05;;;;;;;45.25;20.23;;;;;;;;;;6184875;23;20017;-53
2022/03/21 01:51:31;;;;;;;33.58;18.77;;;;;;;;;;6185568;23;20032;-53
2022/03/21 01:56:42;;;;;;;34.72;18.35;;;;;;;;;;6186008;23;20145;-54
2022/03/21 01:59:08;;;;;;;35.20;19.88;;;;;;;;;;6185077;23;20091;-52
2022/03/21 02:01:33;;;;;;;39.78;21.75;;;;;;;;;;6158811;23;20009;-50
2022/03/21 02:03:59;;;;;;;36.10;20.08;;;;;;;;;;6183073;23;20053;-49
2022/03/21 02:06:28;;;;;;;39.17;19.83;;;;;;;;;;6186338;23;20064;-52
2022/03/21 02:08:54;;;;;;;40.00;21.07;;;;;;;;;;6183384;23;20025;-53
2022/03/21 02:11:19;;;;;;;37.40;19.05;;;;;;;;;;6184927;23;20242;-49
2022/03/21 02:13:45;;;;;;;40.30;19.02;;;;;;;;;;6183730;23;20317;-50
2022/03/21 02:16:10;;;;;;;40.40;19.63;;;;;;;;;;6181321;23;20017;-54
2022/03/21 02:18:38;;;;;;;38.83;18.45;;;;;;;;;;6157281;23;20013;-52
2022/03/21 02:21:04;;;;;;;35.90;20.42;;;;;;;;;;6185723;23;20050;-48
2022/03/21 02:23:35;;;;;;;38.22;20.98;;;;;;;;;;6183613;23;20017;-53
2022/03/21 02:26:01;;;;;;;43.60;20.85;;;;;;;;;;6186461;23;20013;-52
2022/03/21 02:28:27;;;;;;;39.25;19.73;;;;;;;;;;6183691;23;20029;-49
2022/03/21 02:30:53;;;;;;;36.72;18.73;;;;;;;;;;6159248;23;20013;-50
2022/03/21 02:33:19;;;;;;;43.97;21.15;;;;;;;;;;6183402;23;20028;-50
2022/03/21 02:35:46;;;;;;;39.88;20.02;;;;;;;;;;6185604;23;20036;-52
2022/03/21 02:38:12;;;;;;;36.55;20.40;;;;;;;;;;6157971;23;20017;-54
2022/03/21 02:40:37;;;;;;;39.03;19.65;;;;;;;;;;6182070;23;20016;-50
2022/03/21 02:43:02;;;;;;;37.72;19.55;;;;;;;;;;6184243;23;20009;-52
2022/03/21 02:45:28;;;;;;;37.47;20.42;;;;;;;;;;6185005;23;20021;-50
2022/03/21 02:47:53;;;;;;;36.53;18.70;;;;;;;;;;6183520;23;20025;-50
2022/03/21 02:50:23;;;;;;;31.90;19.40;;;;;;;;;;6182819;23;20056;-53
2022/03/21 02:52:49;;;;;;;43.70;21.15;;;;;;;;;;6183550;23;20036;-51
2022/03/21 02:55:14;;;;;;;39.13;20.65;;;;;;;;;;6182582;23;20028;-51
2022/03/21 02:57:39;;;;;;;36.50;19.80;;;;;;;;;;6183795;23;20020;-49
2022/03/21 03:00:05;;;;;;;37.70;19.60;;;;;;;;;;6159374;23;20012;-52
2022/03/21 03:02:30;;;;;;;40.13;23.65;;;;;;;;;;6181918;23;20457;-52
2022/03/21 03:04:56;;;;;;;37.35;19.40;;;;;;;;;;6184399;23;20019;-50
2022/03/21 03:07:21;;;;;;;34.22;19.92;;;;;;;;;;6156771;23;20028;-50
2022/03/21 03:09:46;;;;;;;35.83;20.25;;;;;;;;;;6184706;23;20009;-49
2022/03/21 03:12:11;;;;;;;35.28;20.23;;;;;;;;;;6182539;23;20093;-51
2022/03/21 03:14:37;;;;;;;36.95;21.00;;;;;;;;;;6184526;23;20001;-53
2022/03/21 03:17:02;;;;;;;42.90;19.90;;;;;;;;;;6183639;23;20429;-52
2022/03/21 03:19:28;;;;;;;45.17;23.08;;;;;;;;;;6185058;23;20040;-52
2022/03/21 03:21:54;;;;;;;34.92;20.52;;;;;;;;;;6157007;23;20089;-53
2022/03/21 03:24:21;;;;;;;36.13;20.95;;;;;;;;;;6184560;23;20020;-50
2022/03/21 03:26:47;;;;;;;34.13;20.00;;;;;;;;;;6183251;23;20582;-50
2022/03/21 03:29:12;;;;;;;39.60;20.73;;;;;;;;;;6185142;23;20128;-51
2022/03/21 03:31:38;;;;;;;40.28;21.27;;;;;;;;;;6182370;23;20019;-50
2022/03/21 03:34:04;;;;;;;37.42;21.05;;;;;;;;;;6186132;23;20019;-52
2022/03/21 03:36:29;;;;;;;37.42;21.30;;;;;;;;;;6183006;23;20667;-48
2022/03/21 03:38:55;;;;;;;37.35;21.02;;;;;;;;;;6185552;23;20702;-49
2022/03/21 03:41:20;;;;;;;40.08;22.50;;;;;;;;;;6182759;23;20013;-51
2022/03/21 03:43:47;;;;;;;33.78;20.23;;;;;;;;;;6157725;23;20006;-54
2022/03/21 03:46:13;;;;;;;47.45;22.17;;;;;;;;;;6184058;23;20017;-48
2022/03/21 03:48:38;;;;;;;43.20;23.33;;;;;;;;;;6184566;23;20048;-53
2022/03/21 03:51:04;;;;;;;35.33;20.48;;;;;;;;;;6182892;23;20025;-52
2022/03/21 03:53:29;;;;;;;43.47;22.75;;;;;;;;;;6184003;23;20013;-54
2022/03/21 03:55:54;;;;;;;40.75;22.23;;;;;;;;;;6184041;23;20848;-52
2022/03/21 03:58:20;;;;;;;38.28;21.42;;;;;;;;;;6183661;23;20032;-56
2022/03/21 04:00:46;;;;;;;52.78;24.02;;;;;;;;;;6182728;23;20013;-52
2022/03/21 04:05:55;;;;;;;40.25;21.75;;;;;;;;;;6183374;23;20040;-53
2022/03/21 04:08:21;;;;;;;38.72;21.83;;;;;;;;;;6183734;23;20017;-50
2022/03/21 04:10:46;;;;;;;43.45;23.52;;;;;;;;;;6183113;23;20016;-52
2022/03/21 04:13:11;;;;;;;39.38;23.02;;;;;;;;;;6184655;23;20009;-52
2022/03/21 04:15:36;;;;;;;48.03;23.70;;;;;;;;;;6181744;23;20017;-53
2022/03/21 04:18:03;;;;;;;43.05;24.50;;;;;;;;;;6185285;23;20092;-51
2022/03/21 04:20:31;;;;;;;39.92;22.02;;;;;;;;;;6182814;23;20097;-54
2022/03/21 04:23:00;;;;;;;38.80;21.83;;;;;;;;;;6182202;23;20021;-50
2022/03/21 04:25:26;;;;;;;43.78;24.48;;;;;;;;;;6181381;23;20477;-54
2022/03/21 04:27:51;;;;;;;43.40;23.30;;;;;;;;;;6180359;23;20048;-52
2022/03/21 04:30:16;;;;;;;43.75;24.67;;;;;;;;;;6178777;23;20010;-53
2022/03/21 04:32:43;;;;;;;45.95;22.88;;;;;;;;;;6178653;23;20970;-52
2022/03/21 04:35:09;;;;;;;41.90;22.92;;;;;;;;;;6179653;23;20016;-52
2022/03/21 04:37:34;;;;;;;40.70;24.15;;;;;;;;;;6177058;23;20036;-54
2022/03/21 04:39:59;;;;;;;40.28;23.27;;;;;;;;;;6179366;23;20013;-53
2022/03/21 04:42:24;;;;;;;54.78;25.90;;;;;;;;;;6178904;23;20013;-52
2022/03/21 04:44:50;;;;;;;48.15;24.65;;;;;;;;;;6178013;23;20013;-53
2022/03/21 04:47:16;;;;;;;49.53;26.23;;;;;;;;;;6177650;23;20028;-53
2022/03/21 04:49:41;;;;;;;47.70;24.95;;;;;;;;;;6176035;23;20021;-53
2022/03/21 04:52:07;;;;;;;39.45;23.10;;;;;;;;;;6177711;23;20019;-52
2022/03/21 04:54:32;;;;;;;39.80;21.95;;;;;;;;;;6169310;23;20013;-52
2022/03/21 04:56:57;;;;;;;43.55;25.55;;;;;;;;;;6178984;23;20005;-55
2022/03/21 04:59:23;;;;;;;45.95;23.50;;;;;;;;;;6177663;23;20044;-54
2022/03/21 05:01:48;;;;;;;48.88;24.63;;;;;;;;;;6178843;23;20017;-51
2022/03/21 05:04:13;;;;;;;44.30;23.13;;;;;;;;;;6152501;23;20013;-53
2022/03/21 05:06:39;;;;;;;41.55;23.65;;;;;;;;;;6179701;23;20009;-50
2022/03/21 05:09:05;;;;;;;41.33;23.27;;;;;;;;;;6179311;23;20457;-51
2022/03/21 05:11:30;;;;;;;44.10;22.55;;;;;;;;;;6180167;23;20089;-54
2022/03/21 05:13:56;;;;;;;45.35;23.05;;;;;;;;;;6181878;23;20012;-53
2022/03/21 05:16:21;;;;;;;47.35;25.30;;;;;;;;;;6155893;23;20017;-53
2022/03/21 05:18:48;;;;;;;50.20;25.85;;;;;;;;;;6183164;23;20016;-50
2022/03/21 05:21:14;;;;;;;41.60;22.33;;;;;;;;;;6180937;23;20040;-50
2022/03/21 05:31:50;;;;;;;42.08;22.23;;;;;;;;;;6180544;23;20052;-51
2022/03/21 05:37:00;;;;;;;43.78;24.55;;;;;;;;;;6181582;23;20020;-52
2022/03/21 05:39:25;;;;;;;48.35;25.05;;;;;;;;;;6182080;23;20013;-50
2022/03/21 05:41:53;;;;;;;50.67;24.77;;;;;;;;;;6184225;23;20021;-53
2022/03/21 05:44:19;;;;;;;46.15;25.42;;;;;;;;;;6182925;23;20017;-54
2022/03/21 05:46:44;;;;;;;44.75;24.90;;;;;;;;;;6158344;23;20092;-53
2022/03/21 05:49:10;;;;;;;49.38;27.13;;;;;;;;;;6184340;23;20076;-53
2022/03/21 05:51:37;;;;;;;55.75;26.75;;;;;;;;;;6183258;23;20032;-50
2022/03/21 05:54:05;;;;;;;45.35;24.48;;;;;;;;;;6177033;23;20019;-51
2022/03/21 05:56:31;;;;;;;43.85;24.55;;;;;;;;;;6178423;23;20104;-50
2022/03/21 05:58:56;;;;;;;54.42;25.27;;;;;;;;;;6179909;23;20017;-51
2022/03/21 06:01:23;;;;;;;42.20;23.60;;;;;;;;;;6157100;23;20563;-50
2022/03/21 06:03:52;;;;;;;44.65;23.65;;;;;;;;;;6180976;23;20013;-52
2022/03/21 06:06:18;;;;;;;48.75;25.10;;;;;;;;;;6181184;23;20013;-50
2022/03/21 06:08:43;;;;;;;49.25;24.83;;;;;;;;;;6182586;23;20013;-50
2022/03/21 06:11:09;;;;;;;47.70;25.95;;;;;;;;;;6183810;23;20020;-51
2022/03/21 06:13:35;;;;;;;47.70;26.10;;;;;;;;;;6180495;23;20015;-52
2022/03/21 06:16:03;;;;;;;50.30;25.95;;;;;;;;;;6183901;23;20012;-49
2022/03/21 06:18:28;;;;;;;51.10;26.30;;;;;;;;;;6183746;23;20021;-52
2022/03/21 06:20:53;;;;;;;65.82;29.70;;;;;;;;;;6185136;23;20016;-49
2022/03/21 06:23:18;;;;;;;51.08;25.85;;;;;;;;;;6182439;23;20045;-52
2022/03/21 06:25:44;;;;;;;48.15;26.33;;;;;;;;;;6182775;23;20013;-53
2022/03/21 06:28:09;;;;;;;49.97;25.73;;;;;;;;;;6183509;23;20424;-50
2022/03/21 06:30:34;;;;;;;50.28;25.67;;;;;;;;;;6182970;23;20669;-55
2022/03/21 06:33:00;;;;;;;49.95;26.73;;;;;;;;;;6183453;23;20009;-53
2022/03/21 06:35:25;;;;;;;52.78;28.15;;;;;;;;;;6181600;23;20009;-52
2022/03/21 06:37:50;;;;;;;54.38;26.48;;;;;;;;;;6183368;23;20009;-50
2022/03/21 06:40:15;;;;;;;48.95;26.80;;;;;;;;;;6180904;23;20021;-52
2022/03/21 06:42:41;;;;;;;49.50;27.00;;;;;;;;;;6172428;23;20005;-53
2022/03/21 06:45:07;;;;;;;49.35;27.08;;;;;;;;;;6171883;23;20009;-51
2022/03/21 06:47:32;;;;;;;55.42;26.83;;;;;;;;;;6177108;23;20045;-54
2022/03/21 06:49:57;;;;;;;56.47;29.23;;;;;;;;;;6180012;23;20021;-52
2022/03/21 06:52:22;;;;;;;54.72;27.05;;;;;;;;;;6176713;23;20075;-49
2022/03/21 06:54:48;;;;;;;48.30;26.15;;;;;;;;;;6177170;23;20013;-54
2022/03/21 06:57:14;;;;;;;50.85;30.10;;;;;;;;;;6175933;23;20013;-53
2022/03/21 06:59:40;;;;;;;61.03;29.35;;;;;;;;;;6183236;23;20005;-52
2022/03/21 07:02:05;;;;;;;50.85;27.42;;;;;;;;;;6181030;23;20028;-51
2022/03/21 07:04:31;;;;;;;55.35;28.65;;;;;;;;;;6155736;23;20060;-50
2022/03/21 07:06:57;;;;;;;45.28;27.92;;;;;;;;;;6183090;23;20009;-51
2022/03/21 07:09:24;;;;;;;54.22;27.75;;;;;;;;;;6184276;23;20029;-50
2022/03/21 07:11:49;;;;;;;52.38;29.00;;;;;;;;;;6182675;23;20009;-52
2022/03/21 07:14:15;;;;;;;54.35;28.67;;;;;;;;;;6182551;23;20016;-54
2022/03/21 07:16:40;;;;;;;51.47;28.70;;;;;;;;;;6184007;23;20009;-51
2022/03/21 07:19:06;;;;;;;61.45;31.30;;;;;;;;;;6155889;23;20012;-50
2022/03/21 07:21:31;;;;;;;56.08;31.48;;;;;;;;;;6184137;23;20017;-50
2022/03/21 07:23:57;;;;;;;68.55;32.88;;;;;;;;;;6182578;23;20624;-50
2022/03/21 07:26:22;;;;;;;58.42;30.80;;;;;;;;;;6184974;23;20013;-52
2022/03/21 07:28:47;;;;;;;65.50;34.30;;;;;;;;;;6183116;23;20020;-49
2022/03/21 07:31:13;;;;;;;65.70;30.25;;;;;;;;;;6186799;23;20043;-48
2022/03/21 07:33:38;;;;;;;60.65;28.60;;;;;;;;;;6155151;23;20760;-53
2022/03/21 07:36:04;;;;;;;53.67;29.98;;;;;;;;;;6184634;23;20036;-52
2022/03/21 07:38:29;;;;;;;60.45;31.45;;;;;;;;;;6158176;23;20025;-56
2022/03/21 07:40:55;;;;;;;60.92;32.80;;;;;;;;;;6183496;23;20025;-50
2022/03/21 07:43:20;;;;;;;60.67;31.90;;;;;;;;;;6184301;23;20063;-53
2022/03/21 07:48:30;;;;;;;59.53;29.52;;;;;;;;;;6184179;23;20040;-54
2022/03/21 07:50:55;;;;;;;58.95;29.58;;;;;;;;;;6182154;23;20020;-53
2022/03/21 07:53:20;;;;;;;65.95;31.58;;;;;;;;;;6184609;23;20009;-51
2022/03/21 07:55:46;;;;;;;67.05;32.53;;;;;;;;;;6183674;23;20452;-53
2022/03/21 07:58:12;;;;;;;57.60;30.40;;;;;;;;;;6158667;23;20017;-52
2022/03/21 08:00:37;;;;;;;57.95;28.98;;;;;;;;;;6181839;23;20036;-52
2022/03/21 08:03:03;;;;;;;63.42;32.58;;;;;;;;;;6184796;23;20009;-53
2022/03/21 08:05:28;;;;;;;59.60;32.45;;;;;;;;;;6180830;23;20013;-53
2022/03/21 08:07:53;;;;;;;59.47;31.20;;;;;;;;;;6182395;23;20822;-53
2022/03/21 08:10:19;;;;;;;61.25;31.33;;;;;;;;;;6152778;23;20515;-54
2022/03/21 08:12:46;;;;;;;60.10;31.92;;;;;;;;;;6178203;23;20001;-56
2022/03/21 08:15:12;;;;;;;60.65;31.45;;;;;;;;;;6178629;23;20040;-56
2022/03/21 08:17:47;;;;;;;86.00;32.60;;;;;;;;;;6182035;23;20092;-54
2022/03/21 08:20:13;;;;;;;65.75;32.55;;;;;;;;;;6179608;23;20028;-50
2022/03/21 08:22:39;;;;;;;66.50;33.58;;;;;;;;;;6178649;23;20009;-52
2022/03/21 08:25:04;;;;;;;58.35;31.30;;;;;;;;;;6178933;23;20153;-52
2022/03/21 08:27:32;;;;;;;58.75;31.42;;;;;;;;;;6178026;23;20021;-51
2022/03/21 08:29:57;;;;;;;64.07;33.70;;;;;;;;;;6179578;23;20017;-57
2022/03/21 08:32:22;;;;;;;58.63;30.85;;;;;;;;;;6177175;23;20089;-50
2022/03/21 08:34:48;;;;;;;67.47;31.38;;;;;;;;;;6176064;23;20009;-53
2022/03/21 08:37:13;;;;;;;58.92;30.40;;;;;;;;;;6180204;23;20021;-50
2022/03/21 08:39:38;;;;;;;72.20;32.55;;;;;;;;;;6179552;23;20028;-53
2022/03/21 08:42:04;;;;;;;56.33;30.38;;;;;;;;;;6177973;23;20024;-54
2022/03/21 08:44:29;;;;;;;63.70;33.45;;;;;;;;;;6179294;23;20013;-53
2022/03/21 08:46:54;;;;;;;58.03;32.13;;;;;;;;;;6178670;23;20094;-53
2022/03/21 08:49:27;;;;;;;70.82;32.17;;;;;;;;;;6179766;23;20024;-50
2022/03/21 08:51:53;;;;;;;61.65;32.88;;;;;;;;;;6179185;23;20005;-55
2022/03/21 08:54:18;;;;;;;63.92;33.85;;;;;;;;;;6154511;23;20009;-49
2022/03/21 08:56:43;;;;;;;64.82;34.88;;;;;;;;;;6176573;23;20005;-52
2022/03/21 08:59:09;;;;;;;59.38;32.95;;;;;;;;;;6176196;23;20009;-53
2022/03/21 09:01:34;;;;;;;58.35;31.95;;;;;;;;;;6179445;23;20009;-53
2022/03/21 09:04:02;;;;;;;63.03;32.58;;;;;;;;;;6184144;23;20024;-56
2022/03/21 09:06:29;;;;;;;59.60;32.20;;;;;;;;;;6181395;23;20428;-52
2022/03/21 09:08:54;;;;;;;68.82;35.67;;;;;;;;;;6183610;23;20021;-53
2022/03/21 09:11:19;;;;;;;65.70;34.00;;;;;;;;;;6179878;23;20072;-51
2022/03/21 09:13:45;;;;;;;68.90;36.97;;;;;;;;;;6148878;23;20009;-51
2022/03/21 09:16:11;;;;;;;72.18;34.13;;;;;;;;;;6173287;23;20017;-53
2022/03/21 09:18:36;;;;;;;62.17;32.53;;;;;;;;;;6177249;23;20016;-53
2022/03/21 09:21:02;;;;;;;60.65;32.83;;;;;;;;;;6179639;23;20015;-54
2022/03/21 09:23:27;;;;;;;71.88;36.00;;;;;;;;;;6181547;23;20013;-54
2022/03/21 09:25:52;;;;;;;72.80;37.05;;;;;;;;;;6179143;23;20005;-51
2022/03/21 09:28:17;;;;;;;66.13;33.50;;;;;;;;;;6177164;23;20021;-55
2022/03/21 09:30:43;;;;;;;67.20;32.58;;;;;;;;;;6180808;23;20016;-49
2022/03/21 09:33:09;;;;;;;64.85;35.65;;;;;;;;;;6158179;23;20009;-51
2022/03/21 09:35:34;;;;;;;63.75;31.83;;;;;;;;;;6156900;23;20009;-52
2022/03/21 09:38:02;;;;;;;62.38;32.78;;;;;;;;;;6181968;23;20013;-52
2022/03/21 09:40:28;;;;;;;67.63;35.05;;;;;;;;;;6184034;23;20273;-55
2022/03/21 09:42:53;;;;;;;61.20;31.83;;;;;;;;;;6183569;23;20717;-55
2022/03/21 09:45:19;;;;;;;67.90;33.95;;;;;;;;;;6156683;23;20017;-51
2022/03/21 09:50:36;;;;;;;61.00;31.77;;;;;;;;;;6178760;23;20044;-54
2022/03/21 09:53:05;;;;;;;61.88;32.70;;;;;;;;;;6182309;23;20013;-53
2022/03/21 09:55:31;;;;;;;64.43;32.88;;;;;;;;;;6182247;23;20734;-51
2022/03/21 09:57:56;;;;;;;62.85;32.75;;;;;;;;;;6184464;23;20009;-52
2022/03/21 10:00:22;;;;;;;65.60;33.10;;;;;;;;;;6158305;23;20044;-51
2022/03/21 10:02:47;;;;;;;62.88;32.17;;;;;;;;;;6184389;23;20009;-50
2022/03/21 10:05:31;;;;;;;65.30;33.63;;;;;;;;;;6183347;23;20017;-51
2022/03/21 10:08:15;;;;;;;64.20;34.03;;;;;;;;;;6186609;23;20092;-54
2022/03/21 10:10:50;;;;;;;59.63;32.72;;;;;;;;;;6183549;23;20012;-51
2022/03/21 10:13:15;;;;;;;70.57;36.83;;;;;;;;;;6180700;23;20005;-51
2022/03/21 10:15:41;;;;;;;55.05;31.35;;;;;;;;;;6168309;23;20100;-50
2022/03/21 10:18:11;;;;;;;64.72;32.75;;;;;;;;;;6185920;23;20617;-53
2022/03/21 10:20:37;;;;;;;58.65;32.75;;;;;;;;;;6183151;23;20335;-55
2022/03/21 10:23:14;;;;;;;59.80;30.10;;;;;;;;;;6185837;23;20032;-52
2022/03/21 10:25:40;;;;;;;61.72;31.98;;;;;;;;;;6183430;23;20012;-52
2022/03/21 10:28:05;;;;;;;54.67;31.92;;;;;;;;;;6186549;23;20072;-49
2022/03/21 10:30:31;;;;;;;60.55;30.75;;;;;;;;;;6156196;23;20017;-53
2022/03/21 10:32:58;;;;;;;63.90;30.52;;;;;;;;;;6180660;23;20020;-50
2022/03/21 10:35:28;;;;;;;53.92;30.45;;;;;;;;;;6180509;23;20029;-50
2022/03/21 10:37:53;;;;;;;59.05;30.83;;;;;;;;;;6185391;23;20009;-55
2022/03/21 10:40:23;;;;;;;51.83;29.30;;;;;;;;;;6182584;23;20013;-49
2022/03/21 10:42:48;;;;;;;;;;;;;;;;;;6185809;23;20052;-52
2022/03/21 10:45:13;;;;;;;54.20;29.23;;;;;;;;;;6184303;23;19927;-52
2022/03/21 10:47:47;;;;;;;57.28;29.15;;;;;;;;;;6184806;23;20029;-54
2022/03/21 10:50:12;;;;;;;58.75;31.65;;;;;;;;;;6184718;23;20081;-54
2022/03/21 10:52:38;;;;;;;49.65;28.73;;;;;;;;;;6184987;23;20448;-50
2022/03/21 10:55:04;;;;;;;55.95;30.88;;;;;;;;;;6184563;23;20017;-49
2022/03/21 10:57:33;;;;;;;52.10;30.17;;;;;;;;;;6183221;23;20013;-52
2022/03/21 11:00:12;;;;;;;57.58;29.08;;;;;;;;;;6185282;23;20009;-53
2022/03/21 11:02:47;;;;;;;59.17;30.10;;;;;;;;;;6180815;23;20595;-52
2022/03/21 11:05:12;;;;;;;66.68;31.45;;;;;;;;;;6184214;23;20346;-53
2022/03/21 11:07:38;;;;;;;59.70;31.48;;;;;;;;;;6184907;23;20017;-53
2022/03/21 11:10:04;;;;;;;56.28;31.17;;;;;;;;;;6184565;23;20068;-52
2022/03/21 11:12:29;;;;;;;55.13;27.17;;;;;;;;;;6184075;23;20009;-53
2022/03/21 11:14:54;;;;;;;54.67;28.95;;;;;;;;;;6184078;23;20009;-53
2022/03/21 11:17:20;;;;;;;57.10;28.77;;;;;;;;;;6175470;23;20432;-54
2022/03/21 11:19:46;;;;;;;49.45;27.75;;;;;;;;;;6175644;23;20020;-55
2022/03/21 11:22:11;;;;;;;60.60;29.20;;;;;;;;;;6181373;23;20013;-51
2022/03/21 11:24:36;;;;;;;59.45;29.38;;;;;;;;;;6181804;23;20044;-51
2022/03/21 11:27:02;;;;;;;47.83;25.85;;;;;;;;;;6183464;23;20009;-54
2022/03/21 11:29:52;;;;;;;47.97;27.88;;;;;;;;;;6157323;23;20093;-51
2022/03/21 11:32:20;;;;;;;57.55;28.33;;;;;;;;;;6184343;23;20017;-53
2022/03/21 11:34:50;;;;;;;61.33;30.05;;;;;;;;;;6182001;23;20027;-55
2022/03/21 11:37:29;;;;;;;49.13;28.58;;;;;;;;;;6185166;23;20013;-54
2022/03/21 11:40:13;;;;;;;51.90;29.65;;;;;;;;;;6182564;23;20012;-55
2022/03/21 11:42:38;;;;;;;61.63;30.30;;;;;;;;;;6181073;23;20587;-51
2022/03/21 11:45:21;;;;;;;49.67;27.90;;;;;;;;;;6185032;23;20053;-52
2022/03/21 11:47:46;;;;;;;54.97;27.58;;;;;;;;;;6181345;23;20025;-53
2022/03/21 11:50:24;;;;;;;52.88;28.23;;;;;;;;;;6184101;23;20389;-54
2022/03/21 11:53:08;;;;;;;57.92;28.73;;;;;;;;;;6182002;23;20038;-50
2022/03/21 11:55:41;;;;;;;52.38;28.73;;;;;;;;;;6181179;23;20079;-52
2022/03/21 11:58:21;;;;;;;61.05;29.52;;;;;;;;;;6184638;23;20085;-54
2022/03/21 12:01:02;;;;;;;55.17;27.52;;;;;;;;;;6179740;23;20013;-55
2022/03/21 12:03:27;;;;;;;53.75;28.58;;;;;;;;;;6180376;23;20507;-53
2022/03/21 12:05:52;;;;;;;49.28;27.40;;;;;;;;;;6184280;23;20024;-52
2022/03/21 12:08:34;;;;;;;49.35;29.75;;;;;;;;;;6182739;23;20029;-51
2022/03/21 12:10:59;;;;;;;53.50;28.77;;;;;;;;;;6183576;23;20080;-50
2022/03/21 12:13:24;;;;;;;50.65;26.25;;;;;;;;;;6180406;23;20009;-52
2022/03/21 12:15:51;;;;;;;46.22;24.40;;;;;;;;;;6184197;23;20024;-53
2022/03/21 12:18:16;;;;;;;37.22;19.00;;;;;;;;;;6177045;23;20013;-55
2022/03/21 12:20:51;;;;;;;41.53;20.90;;;;;;;;;;6178331;23;20005;-53
2022/03/21 12:23:18;;;;;;;33.45;19.10;;;;;;;;;;6178594;23;20013;-50
2022/03/21 12:25:47;;;;;;;40.53;20.52;;;;;;;;;;6181296;23;20012;-52
2022/03/21 12:28:19;;;;;;;42.53;20.05;;;;;;;;;;6179519;23;20024;-52
2022/03/21 12:30:48;;;;;;;42.88;19.00;;;;;;;;;;6180028;23;20028;-50
2022/03/21 12:33:13;;;;;;;32.47;17.45;;;;;;;;;;6176223;23;20068;-50
2022/03/21 12:35:45;;;;;;;39.13;18.92;;;;;;;;;;6178853;23;20385;-51
2022/03/21 12:38:23;;;;;;;35.80;20.02;;;;;;;;;;6149617;23;20464;-50
2022/03/21 12:40:58;;;;;;;35.28;18.88;;;;;;;;;;6178587;23;20109;-51
2022/03/21 12:43:29;;;;;;;33.55;20.40;;;;;;;;;;6176645;23;20031;-52
2022/03/21 12:46:07;;;;;;;43.50;18.63;;;;;;;;;;6181351;23;20016;-51
2022/03/21 12:48:34;;;;;;;36.85;19.23;;;;;;;;;;6179096;23;20030;-51
2022/03/21 12:51:01;;;;;;;34.70;18.58;;;;;;;;;;6177873;23;20021;-49
2022/03/21 12:53:45;;;;;;;37.88;19.35;;;;;;;;;;6179313;23;20048;-52
2022/03/21 12:56:11;;;;;;;29.95;17.42;;;;;;;;;;6177178;23;20032;-49
2022/03/21 12:58:40;;;;;;;40.08;20.15;;;;;;;;;;6175808;23;20005;-51
2022/03/21 13:01:06;;;;;;;30.85;18.77;;;;;;;;;;6180389;23;20031;-50
2022/03/21 13:03:31;;;;;;;34.15;18.42;;;;;;;;;;6174029;23;20446;-54
2022/03/21 13:11:25;;;;;;;32.80;17.13;;;;;;;;;;6180287;23;20260;-51
2022/03/21 13:13:53;;;;;;;40.93;18.43;;;;;;;;;;6171601;23;20017;-48
2022/03/21 13:16:22;;;;;;;29.35;16.75;;;;;;;;;;6179351;23;20228;-50
2022/03/21 13:18:47;;;;;;;36.75;17.63;;;;;;;;;;6181167;23;20036;-49
2022/03/21 13:21:13;;;;;;;29.58;15.50;;;;;;;;;;6180769;23;20013;-54
2022/03/21 13:23:38;;;;;;;29.05;16.42;;;;;;;;;;6183325;23;20017;-52
2022/03/21 13:26:11;;;;;;;33.38;17.15;;;;;;;;;;6182169;23;20126;-50
2022/03/21 13:28:38;;;;;;;34.72;15.30;;;;;;;;;;6183390;23;20021;-48
2022/03/21 13:31:04;;;;;;;32.42;15.60;;;;;;;;;;6181738;23;20043;-47
2022/03/21 13:33:31;;;;;;;28.00;13.90;;;;;;;;;;6184451;23;20093;-50
2022/03/21 13:36:02;;;;;;;30.35;14.32;;;;;;;;;;6183461;23;20112;-48
2022/03/21 13:38:28;;;;;;;29.50;13.35;;;;;;;;;;6184929;23;20013;-52
2022/03/21 13:40:53;;;;;;;28.23;13.90;;;;;;;;;;6183248;23;20040;-49
2022/03/21 13:43:19;;;;;;;33.28;15.80;;;;;;;;;;6184896;23;20068;-50
2022/03/21 13:45:45;;;;;;;30.20;13.05;;;;;;;;;;6155918;23;20031;-50
2022/03/21 13:48:10;;;;;;;26.33;13.15;;;;;;;;;;6186149;23;20437;-49
2022/03/21 13:50:38;;;;;;;34.33;15.13;;;;;;;;;;6182653;23;20025;-50
2022/03/21 13:53:22;;;;;;;33.55;14.07;;;;;;;;;;6186127;23;20040;-49
2022/03/21 13:55:48;;;;;;;26.83;13.65;;;;;;;;;;6180880;23;20163;-52
2022/03/21 13:58:23;;;;;;;22.52;11.80;;;;;;;;;;6184811;23;20013;-53
2022/03/21 14:00:48;;;;;;;27.08;12.68;;;;;;;;;;6178213;23;20005;-49
2022/03/21 14:03:28;;;;;;;27.88;13.82;;;;;;;;;;6181439;23;20041;-50
2022/03/21 14:05:56;;;;;;;28.95;12.88;;;;;;;;;;6183355;23;20009;-48
2022/03/21 14:08:22;;;;;;;26.58;13.70;;;;;;;;;;6182177;23;20025;-49
2022/03/21 14:10:48;;;;;;;24.23;10.90;;;;;;;;;;6183969;23;20016;-48
2022/03/21 14:13:27;;;;;;;22.92;11.50;;;;;;;;;;6184448;23;20080;-52
2022/03/21 14:15:54;;;;;;;32.85;12.88;;;;;;;;;;6157725;23;20558;-48
2022/03/21 14:18:32;;;;;;;23.85;11.60;;;;;;;;;;6183549;23;20615;-51
2022/03/21 14:21:00;;;;;;;29.67;13.60;;;;;;;;;;6183076;23;20024;-48
2022/03/21 14:23:25;;;;;;;28.15;13.05;;;;;;;;;;6183899;23;20241;-51
2022/03/21 14:28:34;;;;;;;25.35;12.65;;;;;;;;;;6184846;23;20028;-51
2022/03/21 14:31:01;;;;;;;22.23;12.43;;;;;;;;;;6155703;23;20005;-50
2022/03/21 14:33:27;;;;;;;26.10;11.82;;;;;;;;;;6182674;23;20045;-49
2022/03/21 14:35:52;;;;;;;20.58;11.48;;;;;;;;;;6184091;23;20017;-51
2022/03/21 14:38:18;;;;;;;18.73;11.00;;;;;;;;;;6184068;23;20347;-54
2022/03/21 14:40:43;;;;;;;26.25;12.27;;;;;;;;;;6183380;23;20343;-51
2022/03/21 14:43:09;;;;;;;26.80;12.82;;;;;;;;;;6183457;23;20040;-52
2022/03/21 14:45:34;;;;;;;23.85;11.45;;;;;;;;;;6183017;23;20013;-52
2022/03/21 14:47:59;;;;;;;23.55;11.30;;;;;;;;;;6183879;23;20017;-49